Time;durP1;ratioP1;P1;durP2;ratioP2;P2;SDS_P1;SDS_P2;PMS_P1;PMS_P2;Temp;Humidity;BMP_temperature;BMP_pressure;BME280_temperature;BME280_humidity;BME280_pressure;Samples;Min_cycle;Max_cycle;Signal;HPM_P1;HPM_P2
2024/03/06 00:00:18;;;;;;;37.78;25.58;;;;;;;5.93;100.00;69051.09;5088598;28;20529;-54
2024/03/06 00:02:47;;;;;;;40.38;25.25;;;;;;;5.92;100.00;69047.34;5091943;28;20048;-54
2024/03/06 00:05:15;;;;;;;32.22;23.92;;;;;;;5.93;100.00;69048.53;5091830;28;20040;-46
2024/03/06 00:07:43;;;;;;;37.30;24.42;;;;;;;5.89;100.00;69040.69;5090208;28;20494;-45
2024/03/06 00:10:11;;;;;;;37.25;24.98;;;;;;;5.89;100.00;69046.47;5087073;28;20054;-48
2024/03/06 00:12:40;;;;;;;38.25;25.08;;;;;;;5.89;100.00;69043.28;5088494;28;20040;-46
2024/03/06 00:15:09;;;;;;;36.80;25.40;;;;;;;5.87;100.00;69044.13;5088558;28;20048;-47
2024/03/06 00:17:38;;;;;;;36.38;24.95;;;;;;;5.85;100.00;69041.22;5089204;28;20093;-48
2024/03/06 00:20:08;;;;;;;34.47;25.77;;;;;;;5.86;100.00;69042.38;5088000;28;20067;-49
2024/03/06 00:22:37;;;;;;;34.97;25.00;;;;;;;5.86;100.00;69037.19;5090609;28;20060;-47
2024/03/06 00:25:06;;;;;;;36.75;25.50;;;;;;;5.82;100.00;69032.56;5091715;28;20495;-49
2024/03/06 00:27:34;;;;;;;38.17;26.17;;;;;;;5.79;100.00;69034.25;5091734;28;20048;-47
2024/03/06 00:30:04;;;;;;;38.90;26.85;;;;;;;5.76;100.00;69031.34;5090463;28;20056;-49
2024/03/06 00:32:35;;;;;;;36.17;26.33;;;;;;;5.74;100.00;69027.00;5090270;28;20454;-48
2024/03/06 00:35:06;;;;;;;38.22;25.77;;;;;;;5.72;100.00;69021.50;5089169;28;20117;-49
2024/03/06 00:37:34;;;;;;;39.03;25.95;;;;;;;5.71;100.00;69022.94;5087436;28;20048;-47
2024/03/06 00:40:03;;;;;;;39.20;25.00;;;;;;;5.68;100.00;69016.84;5091285;28;20051;-48
2024/03/06 00:42:31;;;;;;;39.53;26.13;;;;;;;5.66;100.00;69019.69;5094071;28;20459;-49
2024/03/06 00:45:00;;;;;;;34.65;24.63;;;;;;;5.63;100.00;69016.81;5095293;28;20457;-48
2024/03/06 00:47:28;;;;;;;35.03;25.08;;;;;;;5.59;100.00;69015.31;5095331;28;20054;-50
2024/03/06 00:49:56;;;;;;;37.03;25.10;;;;;;;5.56;100.00;69006.66;5093856;28;20511;-51
2024/03/06 00:52:25;;;;;;;36.75;23.90;;;;;;;5.52;100.00;68999.44;5095267;28;20123;-50
2024/03/06 00:54:54;;;;;;;33.78;24.88;;;;;;;5.50;100.00;68999.13;5094093;28;20059;-51
2024/03/06 00:57:22;;;;;;;36.25;24.95;;;;;;;5.46;100.00;68997.63;5095343;28;20514;-49
2024/03/06 00:59:51;;;;;;;33.60;23.48;;;;;;;5.43;100.00;68994.16;5094833;28;20115;-50
2024/03/06 01:02:19;;;;;;;31.60;22.65;;;;;;;5.39;100.00;68984.88;5095005;28;20046;-50
2024/03/06 01:04:47;;;;;;;34.65;24.25;;;;;;;5.34;100.00;68975.91;5095110;28;20101;-49
2024/03/06 01:07:15;;;;;;;31.35;21.33;;;;;;;5.30;100.00;68973.84;5093727;28;20058;-50
2024/03/06 01:09:45;;;;;;;31.15;22.67;;;;;;;5.25;100.00;68971.78;5094946;28;20052;-49
2024/03/06 01:12:13;;;;;;;31.67;22.50;;;;;;;5.22;100.00;68968.31;5094929;28;20034;-49
2024/03/06 01:14:42;;;;;;;29.60;21.60;;;;;;;5.15;100.00;68959.59;5094818;28;20505;-51
2024/03/06 01:17:10;;;;;;;28.92;20.63;;;;;;;5.13;100.00;68957.28;5095206;28;20036;-50
2024/03/06 01:19:43;;;;;;;32.55;22.15;;;;;;;5.05;100.00;68951.13;5094320;28;20055;-51
2024/03/06 01:22:13;;;;;;;30.77;21.10;;;;;;;5.03;100.00;68951.41;5089867;28;20051;-52
2024/03/06 01:24:41;;;;;;;30.15;20.63;;;;;;;4.98;100.00;68940.44;5092748;28;20475;-47
2024/03/06 01:27:11;;;;;;;30.08;21.02;;;;;;;4.92;100.00;68936.59;5094581;28;20044;-48
2024/03/06 01:29:39;;;;;;;29.38;20.80;;;;;;;4.89;100.00;68933.72;5093239;28;20516;-47
2024/03/06 01:32:07;;;;;;;31.92;21.52;;;;;;;4.86;100.00;68927.63;5094403;28;20044;-49
2024/03/06 01:34:36;;;;;;;29.05;20.10;;;;;;;4.79;100.00;68922.09;5094236;28;20052;-49
2024/03/06 01:37:04;;;;;;;27.98;20.48;;;;;;;4.76;100.00;68916.03;5094545;28;20497;-51
2024/03/06 01:39:33;;;;;;;29.35;21.10;;;;;;;4.72;100.00;68913.97;5094493;28;20066;-48
2024/03/06 01:42:01;;;;;;;32.25;21.88;;;;;;;4.67;100.00;68908.16;5094437;28;20039;-49
2024/03/06 01:44:31;;;;;;;29.17;21.13;;;;;;;4.61;100.00;68901.78;5094297;28;20097;-50
2024/03/06 01:46:59;;;;;;;31.80;21.67;;;;;;;4.55;100.00;68895.38;5094359;28;20062;-50
2024/03/06 01:49:28;;;;;;;29.17;20.27;;;;;;;4.53;100.00;68892.47;5094209;28;20050;-49
2024/03/06 01:52:13;;;;;;;25.98;18.95;;;;;;;4.50;100.00;68884.41;5094396;28;20100;-50
2024/03/06 01:54:41;;;;;;;27.05;19.33;;;;;;;4.43;100.00;68876.28;5090244;28;20411;-52
2024/03/06 01:57:13;;;;;;;28.52;20.33;;;;;;;4.38;100.00;68870.47;5090656;28;20067;-51
2024/03/06 01:59:43;;;;;;;29.40;21.15;;;;;;;4.33;100.00;68867.25;5094110;28;20056;-48
2024/03/06 02:02:12;;;;;;;29.90;21.17;;;;;;;4.30;100.00;68866.91;5093753;28;20399;-48
2024/03/06 02:04:40;;;;;;;30.10;21.65;;;;;;;4.28;100.00;68861.44;5091126;28;20118;-47
2024/03/06 02:07:11;;;;;;;28.92;19.95;;;;;;;4.25;100.00;68852.78;5090583;28;20093;-52
2024/03/06 02:09:40;;;;;;;27.83;19.15;;;;;;;4.20;100.00;68855.91;5091984;28;20438;-50
2024/03/06 02:12:09;;;;;;;26.48;19.13;;;;;;;4.12;100.00;68851.78;5092480;28;20489;-50
2024/03/06 02:14:37;;;;;;;29.13;19.88;;;;;;;4.06;100.00;68834.47;5089408;28;20039;-47
2024/03/06 02:17:07;;;;;;;27.17;20.23;;;;;;;3.99;100.00;68826.34;5089786;28;20063;-48
2024/03/06 02:19:40;;;;;;;29.00;20.02;;;;;;;3.94;100.00;68825.69;5089855;28;20307;-47
2024/03/06 02:22:10;;;;;;;;;;;;;;;3.95;100.00;68829.44;5091005;28;20399;-47
2024/03/06 02:24:39;;;;;;;24.92;17.95;;;;;;;3.88;100.00;68814.72;5090908;28;19920;-48
2024/03/06 02:27:07;;;;;;;27.25;19.63;;;;;;;3.81;100.00;68809.19;5090384;28;20047;-47
2024/03/06 02:29:36;;;;;;;26.63;18.90;;;;;;;3.81;100.00;68806.63;5089199;28;20649;-47
2024/03/06 02:32:04;;;;;;;26.23;19.08;;;;;;;3.75;100.00;68802.25;5089946;28;20114;-47
2024/03/06 02:34:32;;;;;;;28.27;19.63;;;;;;;3.69;100.00;68792.69;5089486;28;20510;-50
2024/03/06 02:37:00;;;;;;;27.23;19.55;;;;;;;3.65;100.00;68793.78;5090092;28;20052;-47
2024/03/06 02:39:30;;;;;;;27.08;19.58;;;;;;;3.57;100.00;68781.34;5089023;28;20058;-48
2024/03/06 02:41:58;;;;;;;27.60;19.70;;;;;;;3.55;100.00;68779.59;5091385;28;20040;-48
2024/03/06 02:44:26;;;;;;;28.00;19.88;;;;;;;3.58;100.00;68785.66;5091855;28;20052;-46
2024/03/06 02:46:54;;;;;;;26.83;18.75;;;;;;;3.54;100.00;68781.03;5092706;28;20431;-47
2024/03/06 02:49:23;;;;;;;24.80;18.65;;;;;;;3.51;100.00;68772.38;5092095;28;20056;-48
2024/03/06 02:51:51;;;;;;;31.17;20.83;;;;;;;3.50;100.00;68776.94;5089593;28;20050;-49
2024/03/06 02:54:20;;;;;;;35.53;20.98;;;;;;;3.43;100.00;68768.25;5091222;28;20036;-49
2024/03/06 02:56:52;;;;;;;35.25;21.92;;;;;;;3.38;100.00;68760.44;5092795;28;20131;-49
2024/03/06 02:59:20;;;;;;;41.15;23.65;;;;;;;3.33;100.00;68757.81;5089008;28;20051;-48
2024/03/06 03:01:48;;;;;;;34.67;21.88;;;;;;;3.32;100.00;68748.34;5089509;28;20047;-48
2024/03/06 03:04:17;;;;;;;36.08;22.98;;;;;;;3.33;100.00;68759.81;5090676;28;20055;-48
2024/03/06 03:06:45;;;;;;;39.05;24.35;;;;;;;3.29;100.00;68750.59;5092533;28;20478;-50
2024/03/06 03:09:13;;;;;;;32.70;22.60;;;;;;;3.25;100.00;68742.81;5092878;28;20040;-47
2024/03/06 03:11:44;;;;;;;35.88;22.92;;;;;;;3.18;100.00;68735.84;5092708;28;20140;-48
2024/03/06 03:14:13;;;;;;;35.65;21.80;;;;;;;3.15;100.00;68737.50;5092543;28;20046;-47
2024/03/06 03:16:42;;;;;;;31.90;20.77;;;;;;;3.10;100.00;68731.72;5089141;28;20663;-48
2024/03/06 03:19:11;;;;;;;26.92;20.48;;;;;;;3.07;100.00;68725.66;5090087;28;20055;-47
2024/03/06 03:21:39;;;;;;;30.95;20.77;;;;;;;3.03;100.00;68721.03;5092607;28;20094;-49
2024/03/06 03:24:07;;;;;;;32.17;19.67;;;;;;;2.99;100.00;68716.38;5092523;28;20046;-50
2024/03/06 03:26:36;;;;;;;22.75;17.60;;;;;;;2.95;100.00;68714.31;5092198;28;20047;-47
2024/03/06 03:29:05;;;;;;;22.63;18.08;;;;;;;2.92;100.00;68711.41;5090382;28;20150;-47
2024/03/06 03:31:36;;;;;;;24.95;18.50;;;;;;;2.88;100.00;68704.78;5089660;28;20144;-49
2024/03/06 03:34:04;;;;;;;21.48;16.70;;;;;;;2.88;100.00;68704.78;5090358;28;20385;-51
2024/03/06 03:36:33;;;;;;;20.52;16.45;;;;;;;2.85;100.00;68698.72;5092391;28;20503;-48
2024/03/06 03:39:03;;;;;;;21.77;16.92;;;;;;;2.82;100.00;68697.22;5089918;28;20387;-46
2024/03/06 03:41:31;;;;;;;20.58;16.33;;;;;;;2.79;100.00;68696.91;5089180;28;20077;-49
2024/03/06 03:43:59;;;;;;;20.15;16.30;;;;;;;2.78;100.00;68690.59;5087041;28;20043;-47
2024/03/06 03:46:27;;;;;;;20.67;15.98;;;;;;;2.77;100.00;68694.59;5089051;28;20105;-48
2024/03/06 03:48:57;;;;;;;19.50;16.20;;;;;;;2.75;100.00;68689.69;5092230;28;20056;-51
2024/03/06 03:51:25;;;;;;;18.83;15.55;;;;;;;2.72;100.00;68688.78;5090854;28;20055;-47
2024/03/06 03:53:53;;;;;;;22.65;15.52;;;;;;;2.66;100.00;68679.28;5092280;28;20522;-48
2024/03/06 03:56:21;;;;;;;24.42;16.52;;;;;;;2.62;100.00;68674.63;5092241;28;20132;-48
2024/03/06 03:58:52;;;;;;;22.55;15.20;;;;;;;2.61;100.00;68673.47;5092214;28;20443;-47
2024/03/06 04:01:20;;;;;;;19.55;15.93;;;;;;;2.58;100.00;68667.41;5092083;28;20074;-51
2024/03/06 04:03:48;;;;;;;18.02;15.10;;;;;;;2.56;100.00;68665.66;5092195;28;20036;-49
2024/03/06 04:06:18;;;;;;;19.58;15.13;;;;;;;2.49;100.00;68663.28;5089014;28;20048;-47
2024/03/06 04:08:46;;;;;;;29.75;16.35;;;;;;;2.49;100.00;68654.97;5089182;28;20438;-49
2024/03/06 04:11:15;;;;;;;23.98;15.73;;;;;;;2.44;100.00;68651.75;5091919;28;20044;-49
2024/03/06 04:13:43;;;;;;;23.85;17.35;;;;;;;2.39;100.00;68649.13;5091830;28;20088;-49
2024/03/06 04:16:17;;;;;;;34.67;17.85;;;;;;;2.38;100.00;68644.81;5092662;28;20451;-48
2024/03/06 04:18:46;;;;;;;23.20;16.95;;;;;;;2.36;100.00;68645.66;5095703;28;20075;-46
2024/03/06 04:21:15;;;;;;;29.40;17.60;;;;;;;2.37;100.00;68649.38;5092675;28;20087;-48
2024/03/06 04:23:45;;;;;;;22.58;17.52;;;;;;;2.35;100.00;68642.47;5093944;28;20093;-53
2024/03/06 04:26:14;;;;;;;24.13;17.75;;;;;;;2.36;100.00;68648.22;5093513;28;20523;-49
2024/03/06 04:28:42;;;;;;;23.05;17.23;;;;;;;2.36;100.00;68648.22;5090693;28;20048;-48
2024/03/06 04:31:11;;;;;;;26.25;19.27;;;;;;;2.34;100.00;68641.31;5095043;28;20036;-49
2024/03/06 04:33:39;;;;;;;26.95;20.73;;;;;;;2.35;100.00;68645.06;5095488;28;20044;-50
2024/03/06 04:36:08;;;;;;;36.80;21.92;;;;;;;2.35;100.00;68644.47;5095471;28;20048;-48
2024/03/06 04:38:36;;;;;;;35.83;20.23;;;;;;;2.31;100.00;68637.28;5095453;28;20403;-47
2024/03/06 04:41:07;;;;;;;30.73;21.30;;;;;;;2.26;100.00;68637.19;5094170;28;20044;-49
2024/03/06 04:43:35;;;;;;;31.08;19.60;;;;;;;2.26;100.00;68639.78;5095393;28;20048;-47
2024/03/06 04:46:04;;;;;;;25.40;19.63;;;;;;;2.24;100.00;68634.88;5095751;28;20127;-47
2024/03/06 04:48:32;;;;;;;26.92;20.02;;;;;;;2.25;100.00;68635.47;5094173;28;20698;-47
2024/03/06 04:51:01;;;;;;;25.92;18.30;;;;;;;2.26;100.00;68634.03;5092072;28;20048;-47
2024/03/06 04:53:29;;;;;;;34.72;19.10;;;;;;;2.29;100.00;68634.94;5092321;28;20036;-49
2024/03/06 04:55:57;;;;;;;33.08;19.48;;;;;;;2.26;100.00;68637.19;5091019;28;20123;-48
2024/03/06 04:58:27;;;;;;;34.72;20.52;;;;;;;2.26;100.00;68631.47;5094615;28;20040;-45
2024/03/06 05:00:55;;;;;;;27.65;19.05;;;;;;;2.21;100.00;68631.41;5094953;28;20501;-46
2024/03/06 05:03:23;;;;;;;25.10;19.23;;;;;;;2.18;100.00;68628.50;5093587;28;20056;-46
2024/03/06 05:06:09;;;;;;;65.20;20.63;;;;;;;2.18;100.00;68627.91;5094689;28;20123;-49
2024/03/06 05:08:54;;;;;;;54.20;21.27;;;;;;;2.17;100.00;68624.78;5092934;28;20044;-48
2024/03/06 05:11:40;;;;;;;64.13;21.73;;;;;;;2.17;100.00;68621.63;5094905;28;20032;-47
2024/03/06 05:14:27;;;;;;;51.17;21.80;;;;;;;2.22;100.00;68631.97;5094619;28;20040;-48
2024/03/06 05:17:13;;;;;;;64.25;21.40;;;;;;;2.24;100.00;68631.75;5094875;28;20047;-49
2024/03/06 05:19:58;;;;;;;90.90;25.25;;;;;;;2.24;100.00;68629.75;5094714;28;20806;-47
2024/03/06 05:22:46;;;;;;;44.60;20.20;;;;;;;2.20;100.00;68630.81;5094688;28;20059;-50
2024/03/06 05:25:32;;;;;;;63.50;22.17;;;;;;;2.20;100.00;68628.25;5093330;28;20519;-51
2024/03/06 05:28:17;;;;;;;65.95;22.90;;;;;;;2.20;100.00;68630.25;5094204;28;20048;-48
2024/03/06 05:31:17;;;;;;;58.92;20.10;;;;;;;2.19;100.00;68627.09;5094557;28;20495;-50
2024/03/06 05:34:04;;;;;;;73.63;21.63;;;;;;;2.21;100.00;68628.84;5094508;28;20040;-48
2024/03/06 05:36:51;;;;;;;47.78;20.38;;;;;;;2.23;100.00;68630.56;5093100;28;20048;-49
2024/03/06 05:39:37;;;;;;;73.53;21.52;;;;;;;2.22;100.00;68629.97;5093239;28;20483;-48
2024/03/06 05:42:22;;;;;;;65.70;20.02;;;;;;;2.22;100.00;68626.84;5093046;28;20059;-47
2024/03/06 05:45:10;;;;;;;48.95;20.10;;;;;;;2.22;100.00;68631.97;5092937;28;20056;-49
2024/03/06 05:47:57;;;;;;;35.50;17.88;;;;;;;2.22;100.00;68629.41;5094111;28;20063;-50
2024/03/06 05:50:42;;;;;;;41.40;18.45;;;;;;;2.22;100.00;68631.97;5093628;28;20058;-48
2024/03/06 05:53:28;;;;;;;59.78;20.08;;;;;;;2.23;100.00;68635.72;5090929;28;20044;-47
2024/03/06 05:56:13;;;;;;;49.85;20.35;;;;;;;2.22;100.00;68632.56;5092305;28;20047;-48
2024/03/06 05:59:01;;;;;;;48.40;21.10;;;;;;;2.23;100.00;68633.16;5089114;28;20044;-47
2024/03/06 06:01:32;;;;;;;46.00;20.67;;;;;;;2.21;100.00;68631.41;5091112;28;20044;-48
2024/03/06 06:04:02;;;;;;;29.13;19.92;;;;;;;2.19;100.00;68634.81;5093818;28;20032;-47
2024/03/06 06:06:35;;;;;;;50.95;23.30;;;;;;;2.20;100.00;68628.25;5094192;28;20043;-50
2024/03/06 06:09:05;;;;;;;34.53;20.95;;;;;;;2.20;100.00;68630.25;5092166;28;20082;-50
2024/03/06 06:11:35;;;;;;;60.08;22.38;;;;;;;2.23;100.00;68628.00;5093848;28;20044;-49
2024/03/06 06:14:05;;;;;;;33.28;20.30;;;;;;;2.22;100.00;68634.56;5093664;28;20122;-51
2024/03/06 06:16:37;;;;;;;33.67;20.92;;;;;;;2.19;100.00;68629.66;5093536;28;20101;-48
2024/03/06 06:19:07;;;;;;;33.40;20.48;;;;;;;2.17;100.00;68622.19;5093556;28;20059;-48
2024/03/06 06:21:37;;;;;;;30.20;20.85;;;;;;;2.15;100.00;68625.03;5093432;28;21017;-50
2024/03/06 06:24:05;;;;;;;26.38;20.45;;;;;;;2.16;100.00;68626.19;5093457;28;20036;-50
2024/03/06 06:26:34;;;;;;;28.45;22.08;;;;;;;2.17;100.00;68624.78;5093249;28;20483;-50
2024/03/06 06:29:02;;;;;;;40.55;22.25;;;;;;;2.18;100.00;68627.91;5092989;28;20052;-48
2024/03/06 06:31:31;;;;;;;31.73;21.67;;;;;;;2.21;100.00;68626.25;5093031;28;20079;-51
2024/03/06 06:33:59;;;;;;;34.03;22.25;;;;;;;2.24;100.00;68632.31;5093199;28;20054;-53
2024/03/06 06:36:29;;;;;;;34.67;22.85;;;;;;;2.26;100.00;68636.63;5093291;28;20525;-52
2024/03/06 06:38:57;;;;;;;28.30;22.02;;;;;;;2.24;100.00;68627.16;5091083;28;20534;-51
2024/03/06 06:41:27;;;;;;;43.33;23.13;;;;;;;2.24;100.00;68631.75;5091598;28;20039;-53
2024/03/06 06:43:56;;;;;;;30.30;21.67;;;;;;;2.25;100.00;68635.47;5088439;28;20126;-52
2024/03/06 06:46:24;;;;;;;30.60;21.80;;;;;;;2.26;100.00;68639.78;5089783;28;20044;-52
2024/03/06 06:48:52;;;;;;;31.42;22.42;;;;;;;2.27;100.00;68635.22;5092249;28;20487;-53
2024/03/06 06:51:20;;;;;;;32.40;23.10;;;;;;;2.26;100.00;68639.78;5093019;28;20055;-53
2024/03/06 06:53:50;;;;;;;36.45;22.92;;;;;;;2.28;100.00;68636.38;5092815;28;20040;-53
2024/03/06 06:56:18;;;;;;;37.55;23.77;;;;;;;2.32;100.00;68646.16;5092605;28;20044;-52
2024/03/06 06:58:46;;;;;;;36.33;23.08;;;;;;;2.32;100.00;68641.59;5092695;28;20083;-50
2024/03/06 07:01:16;;;;;;;40.17;22.70;;;;;;;2.35;100.00;68642.47;5092734;28;20718;-51
2024/03/06 07:03:45;;;;;;;30.17;22.23;;;;;;;2.31;100.00;68639.84;5091456;28;20040;-51
2024/03/06 07:06:13;;;;;;;39.10;23.52;;;;;;;2.32;100.00;68641.00;5092996;28;20047;-51
2024/03/06 07:08:41;;;;;;;33.67;21.77;;;;;;;2.37;100.00;68649.38;5092940;28;20503;-52
2024/03/06 07:11:11;;;;;;;49.70;21.65;;;;;;;2.35;100.00;68647.63;5092600;28;20040;-50
2024/03/06 07:13:40;;;;;;;64.47;21.90;;;;;;;2.35;100.00;68647.63;5092582;28;20044;-50
2024/03/06 07:16:09;;;;;;;28.23;21.45;;;;;;;2.35;100.00;68641.91;5092676;28;20403;-52
2024/03/06 07:18:37;;;;;;;33.92;22.65;;;;;;;2.38;100.00;68649.97;5092308;28;20403;-53
2024/03/06 07:21:05;;;;;;;42.92;21.20;;;;;;;2.41;100.00;68648.28;5092291;28;20048;-53
2024/03/06 07:23:33;;;;;;;31.65;20.33;;;;;;;2.39;100.00;68648.53;5092094;28;20534;-51
2024/03/06 07:26:02;;;;;;;32.50;20.13;;;;;;;2.40;100.00;68652.28;5091727;28;20109;-52
2024/03/06 07:28:32;;;;;;;38.78;21.88;;;;;;;2.40;100.00;68652.84;5091918;28;20040;-50
2024/03/06 07:31:00;;;;;;;42.20;22.77;;;;;;;2.42;100.00;68652.59;5088948;28;20473;-50
2024/03/06 07:33:29;;;;;;;112.03;23.50;;;;;;;2.42;100.00;68650.00;5089378;28;20052;-51
2024/03/06 07:35:57;;;;;;;30.40;20.55;;;;;;;2.42;100.00;68652.03;5090501;28;20055;-53
2024/03/06 07:38:25;;;;;;;53.50;22.17;;;;;;;2.49;100.00;68657.56;5090877;28;20048;-51
2024/03/06 07:40:53;;;;;;;39.50;22.90;;;;;;;2.51;100.00;68660.47;5089305;28;20493;-52
2024/03/06 07:43:21;;;;;;;40.88;22.60;;;;;;;2.59;100.00;68673.72;5089014;28;20067;-50
2024/03/06 07:45:52;;;;;;;58.83;22.35;;;;;;;2.62;100.00;68672.63;5090979;28;20058;-52
2024/03/06 07:48:20;;;;;;;29.88;21.52;;;;;;;2.70;100.00;68681.91;5091996;28;20055;-53
2024/03/06 07:50:48;;;;;;;32.20;22.10;;;;;;;2.78;100.00;68695.16;5093782;28;20048;-51
2024/03/06 07:53:17;;;;;;;78.70;22.90;;;;;;;2.78;100.00;68693.19;5096284;28;20560;-52
2024/03/06 07:55:45;;;;;;;52.45;21.50;;;;;;;2.84;100.00;68702.13;5095913;28;20118;-51
2024/03/06 07:58:13;;;;;;;42.67;23.48;;;;;;;2.87;100.00;68703.03;5092291;28;20121;-52
2024/03/06 08:00:41;;;;;;;52.13;23.60;;;;;;;2.93;100.00;68712.00;5094358;28;20050;-54
2024/03/06 08:03:13;;;;;;;32.13;22.50;;;;;;;3.00;100.00;68714.94;5096035;28;20055;-51
2024/03/06 08:05:41;;;;;;;115.38;26.48;;;;;;;3.07;100.00;68725.06;5096129;28;20043;-51
2024/03/06 08:08:10;;;;;;;38.90;25.30;;;;;;;3.11;100.00;68727.13;5095805;28;20048;-51
2024/03/06 08:10:38;;;;;;;78.38;26.42;;;;;;;3.20;100.00;68738.16;5095839;28;20051;-54
2024/03/06 08:13:06;;;;;;;68.68;26.33;;;;;;;3.31;100.00;68749.75;5094155;28;20043;-53
2024/03/06 08:15:34;;;;;;;61.45;26.23;;;;;;;3.37;100.00;68761.88;5093120;28;20126;-50
2024/03/06 08:18:03;;;;;;;85.88;26.85;;;;;;;3.47;100.00;68768.31;5095274;28;20437;-52
2024/03/06 08:20:35;;;;;;;102.07;29.90;;;;;;;3.53;100.00;68779.84;5095872;28;20076;-51
2024/03/06 08:23:09;;;;;;;73.97;27.50;;;;;;;3.64;100.00;68786.88;5095859;28;20139;-52
2024/03/06 08:25:38;;;;;;;41.63;26.98;;;;;;;3.68;100.00;68789.53;5094273;28;20044;-53
2024/03/06 08:28:06;;;;;;;74.35;29.50;;;;;;;3.75;100.00;68804.81;5091613;28;20058;-53
2024/03/06 08:30:34;;;;;;;68.03;30.70;;;;;;;3.79;100.00;68806.88;5092977;28;20059;-52
2024/03/06 08:33:02;;;;;;;119.88;32.15;;;;;;;3.89;100.00;68815.91;5092337;28;20123;-56
2024/03/06 08:35:31;;;;;;;114.00;31.88;;;;;;;3.94;100.00;68826.28;5095525;28;20464;-50
2024/03/06 08:38:01;;;;;;;68.15;30.95;;;;;;;4.01;100.00;68839.00;5095583;28;20039;-52
2024/03/06 08:40:29;;;;;;;111.45;32.50;;;;;;;4.10;100.00;68839.09;5095492;28;20527;-54
2024/03/06 08:42:58;;;;;;;52.88;31.65;;;;;;;4.17;100.00;68847.25;5092275;28;20123;-53
2024/03/06 08:45:26;;;;;;;99.70;32.10;;;;;;;4.22;100.00;68855.63;5091648;28;20040;-53
2024/03/06 08:47:54;;;;;;;89.10;33.65;;;;;;;4.28;100.00;68861.44;5092297;28;20522;-55
2024/03/06 08:50:23;;;;;;;59.45;30.92;;;;;;;4.37;100.00;68872.47;5092770;28;20499;-53
2024/03/06 08:52:53;;;;;;;116.22;33.65;;;;;;;4.46;100.00;68876.59;5095330;28;20046;-53
2024/03/06 08:55:23;;;;;;;68.72;33.72;;;;;;;4.52;100.00;68889.31;5095435;28;20127;-55
2024/03/06 08:57:52;;;;;;;65.95;32.20;;;;;;;4.59;100.00;68894.28;5095098;28;20052;-52
2024/03/06 09:00:21;;;;;;;88.55;32.17;;;;;;;4.64;100.00;68904.69;5095063;28;20036;-52
2024/03/06 09:02:49;;;;;;;67.78;33.50;;;;;;;4.70;100.00;68907.06;5094546;28;20410;-54
2024/03/06 09:05:18;;;;;;;86.35;34.35;;;;;;;4.78;100.00;68922.94;5095193;28;20032;-53
2024/03/06 09:07:46;;;;;;;85.35;34.03;;;;;;;4.89;100.00;68925.38;5095319;28;20442;-54
2024/03/06 09:10:14;;;;;;;71.28;33.00;;;;;;;4.98;100.00;68937.84;5095174;28;20191;-54
2024/03/06 09:12:44;;;;;;;92.75;37.40;;;;;;;5.04;100.00;68944.81;5091337;28;20130;-54
2024/03/06 09:15:13;;;;;;;97.75;35.63;;;;;;;5.07;100.00;68948.28;5092008;28;20433;-54
2024/03/06 09:17:41;;;;;;;74.85;37.10;;;;;;;5.10;100.00;68956.97;5094920;28;20082;-53
2024/03/06 09:20:11;;;;;;;69.28;35.13;;;;;;;5.19;100.00;68962.22;5094815;28;20054;-52
2024/03/06 09:22:42;;;;;;;86.05;37.35;;;;;;;5.28;100.00;68974.13;5094739;28;20047;-54
2024/03/06 09:25:13;;;;;;;73.97;36.38;;;;;;;5.35;100.00;68982.25;5094408;28;20051;-54
2024/03/06 09:27:45;;;;;;;79.30;35.47;;;;;;;5.42;100.00;68992.97;5091142;28;20047;-52
2024/03/06 09:30:15;;;;;;;87.78;39.95;;;;;;;5.46;100.00;68994.47;5092071;28;20051;-51
2024/03/06 09:32:46;;;;;;;87.30;40.40;;;;;;;5.49;100.00;68995.94;5094460;28;20048;-54
2024/03/06 09:35:17;;;;;;;85.00;40.55;;;;;;;5.57;100.00;69007.81;5094342;28;20058;-54
2024/03/06 09:37:47;;;;;;;86.07;40.97;;;;;;;5.66;100.00;69015.13;5091332;28;20059;-54
2024/03/06 09:40:22;;;;;;;85.47;38.60;;;;;;;5.67;100.00;69015.69;5091747;28;20121;-55
2024/03/06 09:42:52;;;;;;;84.93;38.63;;;;;;;5.68;100.00;69014.28;5094377;28;20077;-52
2024/03/06 09:45:21;;;;;;;83.10;38.45;;;;;;;5.66;100.00;69015.13;5094273;28;20043;-55
2024/03/06 09:47:53;;;;;;;83.37;39.13;;;;;;;5.68;100.00;69017.44;5094295;28;20040;-54
2024/03/06 09:50:26;;;;;;;77.53;37.35;;;;;;;5.70;100.00;69017.19;5091415;28;20052;-54
2024/03/06 09:52:56;;;;;;;83.72;39.67;;;;;;;5.76;100.00;69028.75;5091196;28;20054;-54
2024/03/06 09:55:26;;;;;;;83.68;39.35;;;;;;;5.74;100.00;69023.84;5092771;28;20054;-54
2024/03/06 09:57:56;;;;;;;76.10;36.45;;;;;;;5.82;100.00;69033.16;5094113;28;20042;-54
2024/03/06 10:00:24;;;;;;;73.82;37.20;;;;;;;5.73;100.00;69027.84;5094031;28;20093;-56
2024/03/06 10:02:59;;;;;;;69.93;35.30;;;;;;;5.82;100.00;69033.16;5093613;28;20476;-57
2024/03/06 10:05:30;;;;;;;70.10;36.05;;;;;;;5.82;100.00;69033.16;5090784;28;20495;-47
2024/03/06 10:07:59;;;;;;;68.32;33.65;;;;;;;5.83;100.00;69031.69;5091964;28;20063;-47
2024/03/06 10:10:28;;;;;;;67.65;34.42;;;;;;;5.95;100.00;69049.69;5089975;28;20146;-49
2024/03/06 10:12:59;;;;;;;69.80;33.45;;;;;;;6.01;100.00;69059.25;5089071;28;20156;-51
2024/03/06 10:15:30;;;;;;;69.82;34.40;;;;;;;6.04;100.00;69058.16;5091884;28;20036;-51
2024/03/06 10:18:12;;;;;;;70.88;35.28;;;;;;;6.05;100.00;69061.31;5093236;28;20503;-48
2024/03/06 10:20:44;;;;;;;71.35;34.10;;;;;;;6.13;100.00;69072.66;5093352;28;20376;-48
2024/03/06 10:23:13;;;;;;;74.32;36.72;;;;;;;6.20;100.00;69076.19;5090820;28;20048;-47
2024/03/06 10:25:44;;;;;;;74.47;35.50;;;;;;;6.27;100.00;69083.72;5089907;28;20051;-47
2024/03/06 10:28:14;;;;;;;80.00;36.85;;;;;;;6.41;100.00;69102.63;5093482;28;20042;-48
2024/03/06 10:30:43;;;;;;;71.35;37.00;;;;;;;6.46;100.00;69107.28;5093314;28;20051;-49
2024/03/06 10:33:12;;;;;;;72.72;36.20;;;;;;;6.55;100.00;69115.72;5093357;28;20398;-50
2024/03/06 10:35:41;;;;;;;73.85;36.50;;;;;;;6.65;100.00;69128.78;5093017;28;20407;-47
2024/03/06 10:38:11;;;;;;;69.07;35.58;;;;;;;6.71;100.00;69138.38;5093004;28;20047;-48
2024/03/06 10:40:41;;;;;;;64.30;33.80;;;;;;;6.78;100.00;69143.91;5089495;28;20052;-49
2024/03/06 10:43:11;;;;;;;69.05;35.65;;;;;;;6.83;100.00;69152.34;5090269;28;20055;-47
2024/03/06 10:45:48;;;;;;;70.47;35.60;;;;;;;6.89;100.00;69154.13;5092593;28;20047;-49
2024/03/06 10:48:17;;;;;;;66.93;34.08;;;;;;;7.00;100.00;69168.94;5092877;28;20052;-49
2024/03/06 10:50:47;;;;;;;64.68;35.88;;;;;;;7.06;100.00;69173.34;5089657;28;20578;-47
2024/03/06 10:53:17;;;;;;;64.47;34.95;;;;;;;7.13;100.00;69182.91;5089553;28;20109;-47
2024/03/06 10:55:51;;;;;;;59.92;32.92;;;;;;;7.18;100.00;69191.31;5089147;28;20059;-50
2024/03/06 10:58:23;;;;;;;58.53;31.73;;;;;;;7.24;100.00;69196.28;5088665;28;20040;-46
2024/03/06 11:00:55;;;;;;;58.83;32.22;;;;;;;7.37;100.00;69210.25;5089571;28;20051;-48
2024/03/06 11:03:24;;;;;;;61.28;33.65;;;;;;;7.44;100.00;69221.59;5089643;28;20044;-48
2024/03/06 11:05:52;;;;;;;60.33;32.15;;;;;;;7.48;100.00;69223.06;5089362;28;20039;-47
2024/03/06 11:08:21;;;;;;;59.08;32.83;;;;;;;7.49;100.00;69224.22;5089615;28;20465;-47
2024/03/06 11:10:50;;;;;;;60.00;33.72;;;;;;;7.54;100.00;69229.47;5089004;28;20522;-47
2024/03/06 11:13:26;;;;;;;58.20;31.98;;;;;;;7.61;100.00;69238.19;5088321;28;20461;-48
2024/03/06 11:15:58;;;;;;;54.13;32.25;;;;;;;7.75;100.00;69250.75;5089236;28;20116;-47
2024/03/06 11:18:43;;;;;;;56.17;32.55;;;;;;;7.82;100.00;69260.91;5088049;28;20077;-48
2024/03/06 11:21:30;;;;;;;51.40;30.25;;;;;;;7.78;100.00;69256.81;5089327;28;20105;-47
2024/03/06 11:24:21;;;;;;;53.78;30.90;;;;;;;7.85;100.00;69264.41;5088830;28;20094;-47
2024/03/06 11:27:00;;;;;;;50.63;29.35;;;;;;;7.93;100.00;69273.72;5091371;28;20059;-49
2024/03/06 11:30:10;;;;;;;51.97;30.75;;;;;;;8.00;100.00;69281.88;5088552;28;20548;-48
2024/03/06 11:32:58;;;;;;;53.33;31.42;;;;;;;8.08;100.00;69291.19;5092458;28;20040;-48